createdAt,value
2019-05-02T00:01:39.168Z,16.23
2019-05-02T00:04:12.490Z,19.07
2019-05-02T00:06:42.842Z,19.20
2019-05-02T00:09:12.302Z,16.20
2019-05-02T00:11:42.106Z,16.60
2019-05-02T00:14:12.121Z,18.17
2019-05-02T00:16:45.245Z,18.40
2019-05-02T00:19:14.014Z,15.30
2019-05-02T00:21:44.019Z,17.10
2019-05-02T00:24:13.766Z,19.63
2019-05-02T00:26:43.429Z,18.83
2019-05-02T00:29:13.245Z,18.60
2019-05-02T00:31:46.967Z,18.13
2019-05-02T00:34:14.581Z,22.23
2019-05-02T00:36:44.318Z,20.37
2019-05-02T00:39:15.236Z,20.23
2019-05-02T00:41:44.958Z,16.70
2019-05-02T00:44:14.610Z,18.27
2019-05-02T00:46:44.284Z,20.43
2019-05-02T00:49:13.945Z,20.97
2019-05-02T00:51:43.624Z,20.40
2019-05-02T00:54:13.302Z,17.30
2019-05-02T00:56:44.188Z,15.97
2019-05-02T00:59:14.348Z,15.13
2019-05-02T01:01:45.663Z,19.77
2019-05-02T01:04:16.966Z,18.63
2019-05-02T01:06:49.288Z,17.53
2019-05-02T01:09:18.027Z,20.90
2019-05-02T01:11:47.703Z,16.63
2019-05-02T01:14:17.370Z,18.97
2019-05-02T01:16:49.395Z,21.43
2019-05-02T01:19:18.430Z,18.13
2019-05-02T01:21:48.198Z,23.27
2019-05-02T01:24:17.927Z,20.77
2019-05-02T01:26:49.406Z,19.20
2019-05-02T01:29:24.876Z,19.67
2019-05-02T01:31:56.474Z,17.77
2019-05-02T01:34:31.302Z,21.40
2019-05-02T01:37:20.672Z,21.80
2019-05-02T01:39:46.080Z,21.70
2019-05-02T01:42:15.763Z,25.33
2019-05-02T01:44:45.428Z,18.83
2019-05-02T01:47:15.095Z,26.67
2019-05-02T01:49:44.768Z,27.10
2019-05-02T01:52:14.428Z,22.73
2019-05-02T01:54:45.654Z,23.17
2019-05-02T01:57:15.504Z,27.83
2019-05-02T01:59:45.190Z,24.40
2019-05-02T02:02:14.996Z,22.93
2019-05-02T02:04:44.654Z,25.13
2019-05-02T02:07:15.050Z,27.47
2019-05-02T02:09:45.856Z,20.30
2019-05-02T02:12:15.472Z,17.67
2019-05-02T02:14:48.053Z,25.60
2019-05-02T02:17:17.327Z,24.33
2019-05-02T02:19:48.746Z,25.20
2019-05-02T02:22:25.659Z,30.63
2019-05-02T02:25:13.143Z,24.33
2019-05-02T02:27:42.895Z,28.67
2019-05-02T02:30:17.885Z,31.63
2019-05-02T02:32:44.621Z,35.77
2019-05-02T02:35:14.482Z,30.27
2019-05-02T02:37:52.387Z,35.03
2019-05-02T02:40:15.904Z,32.93
2019-05-02T02:42:46.116Z,31.10
2019-05-02T02:45:30.316Z,31.30
2019-05-02T02:48:02.384Z,26.33
2019-05-02T02:50:36.861Z,32.57
2019-05-02T02:53:02.755Z,33.23
2019-05-02T02:55:32.415Z,33.63
2019-05-02T02:58:04.783Z,34.77
2019-05-02T03:00:33.786Z,32.00
2019-05-02T03:04:13.218Z,33.70
2019-05-02T03:06:45.160Z,36.40
2019-05-02T03:09:20.337Z,37.97
2019-05-02T03:11:47.597Z,39.70
2019-05-02T03:14:19.084Z,36.67
2019-05-02T03:16:49.514Z,44.23
2019-05-02T03:19:21.280Z,40.27
2019-05-02T03:21:54.215Z,36.17
2019-05-02T03:24:26.557Z,43.37
2019-05-02T03:26:58.473Z,48.57
2019-05-02T03:29:39.828Z,43.93
2019-05-02T03:32:15.064Z,42.23
2019-05-02T03:34:47.864Z,42.77
2019-05-02T03:37:09.870Z,43.07
2019-05-02T03:39:34.634Z,43.27
2019-05-02T03:42:05.377Z,44.23
2019-05-02T03:44:35.106Z,44.30
2019-05-02T03:47:05.350Z,44.83
2019-05-02T03:49:40.865Z,45.47
2019-05-02T03:52:06.480Z,48.90
2019-05-02T03:54:48.456Z,45.47
2019-05-02T03:57:08.322Z,46.47
2019-05-02T03:59:41.860Z,50.93
2019-05-02T04:02:14.223Z,50.40
2019-05-02T04:04:43.257Z,50.43
2019-05-02T04:07:13.766Z,50.30
2019-05-02T04:09:43.427Z,53.17
2019-05-02T04:12:18.976Z,50.00
2019-05-02T04:14:44.883Z,48.13
2019-05-02T04:17:14.626Z,51.60
2019-05-02T04:19:44.587Z,50.73
2019-05-02T04:22:15.600Z,46.00
2019-05-02T04:24:54.572Z,51.83
2019-05-02T04:27:17.359Z,54.27
2019-05-02T04:29:47.008Z,44.27
2019-05-02T04:32:16.694Z,54.10
2019-05-02T04:34:49.116Z,52.30
2019-05-02T04:37:17.737Z,48.27
2019-05-02T04:39:49.152Z,48.07
2019-05-02T04:42:22.890Z,53.17
2019-05-02T04:45:11.834Z,53.17
2019-05-02T04:47:22.135Z,46.60
2019-05-02T04:49:53.361Z,48.17
2019-05-02T04:52:23.023Z,53.97
2019-05-02T04:54:52.683Z,52.30
2019-05-02T04:57:29.200Z,51.20
2019-05-02T05:00:02.427Z,55.00
2019-05-02T05:02:34.134Z,46.77
2019-05-02T05:04:58.211Z,54.40
2019-05-02T05:07:31.193Z,54.30
2019-05-02T05:10:03.111Z,50.37
2019-05-02T05:12:35.416Z,52.77
2019-05-02T05:15:02.148Z,54.77
2019-05-02T05:17:34.023Z,54.57
2019-05-02T05:20:10.368Z,52.17
2019-05-02T05:22:36.507Z,50.50
2019-05-02T05:25:24.991Z,60.40
2019-05-02T05:27:58.788Z,54.13
2019-05-02T05:30:27.722Z,79.13
2019-05-02T05:32:58.338Z,71.50
2019-05-02T05:35:28.193Z,80.67
2019-05-02T05:37:57.867Z,86.33
2019-05-02T05:40:30.921Z,89.60
2019-05-02T05:43:02.732Z,89.67
2019-05-02T05:45:31.921Z,87.63
2019-05-02T05:48:01.626Z,90.13
2019-05-02T05:50:32.209Z,89.00
2019-05-02T05:53:02.765Z,91.73
2019-05-02T05:55:32.439Z,98.00
2019-05-02T05:58:12.143Z,91.83
2019-05-02T06:00:33.507Z,96.30
2019-05-02T06:03:13.190Z,96.57
2019-05-02T06:05:40.458Z,92.50
2019-05-02T06:08:08.053Z,91.70
2019-05-02T06:10:38.966Z,89.97
2019-05-02T06:13:10.804Z,95.50
2019-05-02T06:15:40.584Z,94.43
2019-05-02T06:18:10.228Z,104.67
2019-05-02T06:20:40.984Z,93.83
2019-05-02T06:23:12.183Z,93.73
2019-05-02T06:25:42.895Z,91.27
2019-05-02T06:28:12.667Z,91.53
2019-05-02T06:30:43.368Z,94.10
2019-05-02T06:33:14.563Z,90.77
2019-05-02T06:35:44.222Z,85.47
2019-05-02T06:38:13.884Z,92.67
2019-05-02T06:40:44.612Z,89.13
2019-05-02T06:43:14.929Z,91.60
2019-05-02T06:45:44.584Z,89.53
2019-05-02T06:48:17.967Z,85.20
2019-05-02T06:50:46.918Z,85.60
2019-05-02T06:53:16.584Z,85.53
2019-05-02T06:55:46.235Z,91.77
2019-05-02T06:58:15.894Z,94.63
2019-05-02T07:00:56.697Z,91.83
2019-05-02T07:03:17.527Z,94.00
2019-05-02T07:05:48.995Z,96.47
2019-05-02T07:08:18.804Z,95.40
2019-05-02T07:10:48.634Z,101.67
2019-05-02T07:13:18.378Z,102.27
2019-05-02T07:15:55.361Z,104.30
2019-05-02T07:18:35.728Z,143.90
2019-05-02T07:21:05.932Z,104.33
2019-05-02T07:23:35.604Z,103.30
2019-05-02T07:26:05.508Z,111.83
2019-05-02T07:28:40.438Z,102.00
2019-05-02T07:31:11.977Z,105.13
2019-05-02T07:33:39.164Z,107.03
2019-05-02T07:36:08.851Z,104.87
2019-05-02T07:38:38.529Z,103.13
2019-05-02T07:41:08.203Z,103.30
2019-05-02T07:43:37.873Z,103.77
2019-05-02T07:46:07.544Z,103.53
2019-05-02T07:48:37.226Z,107.30
2019-05-02T07:51:06.887Z,97.63
2019-05-02T07:53:36.555Z,100.97
2019-05-02T07:56:06.365Z,96.97
2019-05-02T07:58:37.965Z,106.70
2019-05-02T08:01:08.081Z,124.73
2019-05-02T08:03:38.943Z,116.40
2019-05-02T08:06:08.801Z,111.70
2019-05-02T08:08:38.433Z,113.23
2019-05-02T08:11:08.189Z,115.30
2019-05-02T08:13:37.853Z,107.93
2019-05-02T08:16:07.600Z,117.13
2019-05-02T08:18:37.279Z,113.23
2019-05-02T08:21:07.017Z,111.13
2019-05-02T08:23:36.697Z,106.80
2019-05-02T08:26:06.445Z,100.73
2019-05-02T08:28:47.116Z,114.40
2019-05-02T08:31:19.089Z,108.00
2019-05-02T08:33:47.984Z,111.93
2019-05-02T08:36:21.491Z,115.20
2019-05-02T08:38:53.568Z,110.90
2019-05-02T08:41:22.569Z,118.47
2019-05-02T08:43:53.703Z,113.77
2019-05-02T08:46:23.379Z,113.03
2019-05-02T08:48:53.043Z,112.57
2019-05-02T08:51:22.726Z,118.90
2019-05-02T08:53:56.707Z,122.33
2019-05-02T08:56:23.780Z,118.67
2019-05-02T08:58:54.503Z,109.67
2019-05-02T09:01:34.996Z,110.80
2019-05-02T09:03:57.046Z,109.53
2019-05-02T09:06:26.833Z,114.50
2019-05-02T09:08:56.505Z,111.17
2019-05-02T09:11:26.242Z,102.93
2019-05-02T09:13:55.957Z,107.30
2019-05-02T09:16:28.782Z,101.13
2019-05-02T09:18:57.559Z,106.97
2019-05-02T09:21:34.228Z,106.50
2019-05-02T09:23:58.623Z,105.03
2019-05-02T09:26:35.981Z,108.00
2019-05-02T09:29:01.651Z,100.10
2019-05-02T09:31:31.981Z,98.83
2019-05-02T09:34:02.772Z,98.67
2019-05-02T09:36:32.545Z,108.67
2019-05-02T09:39:02.629Z,102.33
2019-05-02T09:41:36.141Z,92.40
2019-05-02T09:44:09.079Z,91.57
2019-05-02T09:46:36.280Z,95.37
2019-05-02T09:49:11.825Z,97.03
2019-05-02T09:51:37.416Z,87.07
2019-05-02T09:54:07.097Z,93.07
2019-05-02T09:56:36.759Z,92.60
2019-05-02T09:59:23.516Z,77.70
2019-05-02T10:01:39.451Z,72.23
2019-05-02T10:04:11.952Z,78.50
2019-05-02T10:06:43.059Z,73.70
2019-05-02T10:09:13.037Z,66.60
2019-05-02T10:11:42.713Z,73.20
2019-05-02T10:14:14.697Z,61.10
2019-05-02T10:16:44.335Z,63.90
2019-05-02T10:19:14.006Z,78.43
2019-05-02T10:21:46.955Z,71.13
2019-05-02T10:24:15.065Z,76.63
2019-05-02T10:26:44.724Z,72.90
2019-05-02T10:29:14.526Z,74.53
2019-05-02T10:31:44.211Z,66.00
2019-05-02T10:34:17.656Z,66.33
2019-05-02T10:36:51.952Z,64.80
2019-05-02T10:39:18.185Z,77.27
2019-05-02T10:41:47.848Z,77.03
2019-05-02T10:44:17.554Z,73.73
2019-05-02T10:46:58.018Z,79.77
2019-05-02T10:49:29.390Z,74.20
2019-05-02T10:51:59.050Z,65.90
2019-05-02T10:54:33.721Z,67.70
2019-05-02T10:57:02.176Z,65.80
2019-05-02T10:59:32.811Z,63.60
2019-05-02T11:02:22.236Z,65.30
2019-05-02T11:04:53.763Z,61.87
2019-05-02T11:07:26.272Z,55.67
2019-05-02T11:09:57.238Z,63.73
2019-05-02T11:12:40.782Z,66.90
2019-05-02T11:15:16.033Z,62.20
2019-05-02T11:17:46.760Z,61.93
2019-05-02T11:20:18.031Z,57.73
2019-05-02T11:22:47.700Z,48.33
2019-05-02T11:25:17.458Z,50.80
2019-05-02T11:27:47.243Z,44.20
2019-05-02T11:30:24.912Z,48.67
2019-05-02T11:32:48.563Z,43.20
2019-05-02T11:35:18.222Z,52.93
2019-05-02T11:37:47.929Z,52.23
2019-05-02T11:40:19.104Z,47.43
2019-05-02T11:42:48.776Z,51.50
2019-05-02T11:45:18.424Z,44.77
2019-05-02T11:47:48.184Z,55.63
2019-05-02T11:50:17.851Z,56.40
2019-05-02T11:52:48.554Z,62.90
2019-05-02T11:55:19.130Z,59.70
2019-05-02T11:57:49.673Z,53.70
2019-05-02T12:00:21.740Z,43.23
2019-05-02T12:02:54.204Z,44.83
2019-05-02T12:05:26.516Z,40.77
2019-05-02T12:08:00.792Z,42.23
2019-05-02T12:10:34.801Z,38.77
2019-05-02T12:12:59.549Z,34.33
2019-05-02T12:15:29.219Z,41.50
2019-05-02T12:17:59.895Z,40.27
2019-05-02T12:20:33.962Z,36.53
2019-05-02T12:23:02.111Z,41.77
2019-05-02T12:25:32.846Z,34.93
2019-05-02T12:28:02.689Z,40.73
2019-05-02T12:30:34.200Z,51.87
2019-05-02T12:33:03.737Z,42.40
2019-05-02T12:35:33.490Z,55.47
2019-05-02T12:38:03.231Z,45.17
2019-05-02T12:40:32.983Z,45.77
2019-05-02T12:43:02.662Z,42.97
2019-05-02T12:45:33.669Z,44.57
2019-05-02T12:48:03.402Z,35.10
2019-05-02T12:50:33.064Z,42.83
2019-05-02T12:53:04.348Z,35.63
2019-05-02T12:55:33.996Z,41.53
2019-05-02T12:58:03.690Z,42.77
2019-05-02T13:00:33.431Z,42.13
2019-05-02T13:03:02.952Z,40.00
2019-05-02T13:05:32.620Z,39.13
2019-05-02T13:08:02.615Z,43.63
2019-05-02T13:10:43.823Z,49.13
2019-05-02T13:13:16.194Z,41.33
2019-05-02T13:15:45.604Z,43.90
2019-05-02T13:18:18.610Z,39.03
2019-05-02T13:20:48.919Z,46.00
2019-05-02T13:23:37.155Z,43.40
2019-05-02T13:26:18.484Z,40.10
2019-05-02T13:28:38.292Z,28.87
2019-05-02T13:31:22.413Z,27.87
2019-05-02T13:33:53.814Z,30.97
2019-05-02T13:36:51.869Z,27.97
2019-05-02T13:39:41.828Z,28.77
2019-05-02T13:42:12.655Z,30.57
2019-05-02T13:44:52.981Z,26.87
2019-05-02T13:47:24.364Z,27.10
2019-05-02T13:49:57.399Z,22.80
2019-05-02T13:52:26.025Z,23.50
2019-05-02T13:54:57.778Z,23.83
2019-05-02T13:57:28.039Z,20.45
2019-05-02T13:59:58.307Z,20.72
2019-05-02T14:02:38.660Z,23.32
2019-05-02T14:05:14.668Z,22.70
2019-05-02T14:07:55.620Z,21.73
2019-05-02T14:10:33.745Z,23.73
2019-05-02T14:13:03.243Z,29.07
2019-05-02T14:15:38.192Z,25.50
2019-05-02T14:18:08.524Z,26.90
2019-05-02T14:20:39.791Z,31.27
2019-05-02T14:23:09.517Z,29.23
2019-05-02T14:25:39.263Z,36.10
2019-05-02T14:28:08.989Z,40.33
2019-05-02T14:30:43.295Z,40.60
2019-05-02T14:33:14.222Z,43.03
2019-05-02T14:35:43.959Z,36.60
2019-05-02T14:38:14.264Z,41.73
2019-05-02T14:41:02.903Z,38.97
2019-05-02T14:43:53.342Z,36.90
2019-05-02T14:46:29.034Z,37.87
2019-05-02T14:48:55.885Z,38.10
2019-05-02T14:51:27.640Z,41.33
2019-05-02T14:53:57.615Z,39.20
2019-05-02T14:56:43.394Z,37.90
2019-05-02T14:59:15.192Z,37.87
2019-05-02T15:01:47.006Z,36.33
2019-05-02T15:04:16.824Z,30.57
2019-05-02T15:06:47.642Z,27.03
2019-05-02T15:09:22.502Z,23.50
2019-05-02T15:12:03.148Z,23.33
2019-05-02T15:14:34.895Z,23.90
2019-05-02T15:17:05.487Z,23.60
2019-05-02T15:19:35.192Z,26.57
2019-05-02T15:22:05.262Z,24.00
2019-05-02T15:24:37.373Z,29.23
2019-05-02T15:27:16.576Z,33.13
2019-05-02T15:29:39.449Z,25.10
2019-05-02T15:32:08.876Z,28.00
2019-05-02T15:34:46.262Z,28.70
2019-05-02T15:37:16.974Z,22.57
2019-05-02T15:42:17.837Z,23.63
2019-05-02T15:44:47.013Z,16.63
2019-05-02T15:47:16.688Z,17.73
2019-05-02T15:49:46.356Z,18.77
2019-05-02T15:52:24.201Z,20.00
2019-05-02T15:54:59.656Z,22.27
2019-05-02T15:57:24.971Z,16.10
2019-05-02T15:59:55.027Z,16.60
2019-05-02T16:02:26.780Z,18.27
2019-05-02T16:04:57.006Z,22.80
2019-05-02T16:07:27.857Z,17.27
2019-05-02T16:10:01.090Z,16.33
2019-05-02T16:12:32.089Z,15.67
2019-05-02T16:15:02.260Z,18.97
2019-05-02T16:17:33.446Z,16.80
2019-05-02T16:20:10.366Z,18.57
2019-05-02T16:22:46.204Z,16.17
2019-05-02T16:25:12.187Z,12.90
2019-05-02T16:27:45.921Z,12.37
2019-05-02T16:30:22.990Z,15.40
2019-05-02T16:32:54.429Z,12.37
2019-05-02T16:35:28.511Z,17.33
2019-05-02T16:37:58.259Z,13.87
2019-05-02T16:40:32.830Z,15.53
2019-05-02T16:43:02.817Z,11.27
2019-05-02T16:45:32.903Z,16.20
2019-05-02T16:48:03.327Z,11.27
2019-05-02T16:50:36.674Z,13.10
2019-05-02T16:53:04.504Z,14.27
2019-05-02T16:55:34.188Z,10.03
2019-05-02T16:58:07.015Z,10.97
2019-05-02T17:00:41.327Z,11.17
2019-05-02T17:03:08.123Z,11.00
2019-05-02T17:05:39.264Z,11.73
2019-05-02T17:08:18.871Z,12.63
2019-05-02T17:10:57.121Z,18.73
2019-05-02T17:13:27.572Z,12.10
2019-05-02T17:15:58.296Z,11.27
2019-05-02T17:18:27.970Z,12.33
2019-05-02T17:20:57.654Z,15.03
2019-05-02T17:23:27.331Z,12.07
2019-05-02T17:25:57.660Z,13.13
2019-05-02T17:28:27.316Z,15.23
2019-05-02T17:30:56.984Z,14.83
2019-05-02T17:33:26.657Z,23.77
2019-05-02T17:35:56.317Z,22.30
2019-05-02T17:38:29.167Z,23.90
2019-05-02T17:40:59.141Z,21.67
2019-05-02T17:43:28.756Z,22.27
2019-05-02T17:45:58.445Z,21.70
2019-05-02T17:48:29.413Z,25.00
2019-05-02T17:51:17.313Z,21.43
2019-05-02T17:53:49.753Z,23.90
2019-05-02T17:56:22.615Z,27.87
2019-05-02T17:58:56.555Z,21.90
2019-05-02T18:01:26.473Z,21.67
2019-05-02T18:03:56.138Z,20.50
2019-05-02T18:06:32.882Z,21.40
2019-05-02T18:08:57.200Z,23.17
2019-05-02T18:11:29.579Z,23.83
2019-05-02T18:13:58.320Z,20.73
2019-05-02T18:16:27.992Z,23.23
2019-05-02T18:18:57.652Z,21.50
2019-05-02T18:21:28.797Z,14.90
2019-05-02T18:24:04.445Z,15.90
2019-05-02T18:26:31.720Z,14.33
2019-05-02T18:29:06.500Z,10.47
2019-05-02T18:31:34.811Z,12.13
2019-05-02T18:34:04.327Z,10.10
2019-05-02T18:36:33.985Z,11.23
2019-05-02T18:39:05.614Z,9.90
2019-05-02T18:41:37.400Z,10.03
2019-05-02T18:44:06.911Z,11.30
2019-05-02T18:46:36.913Z,9.67
2019-05-02T18:49:08.115Z,8.70
2019-05-02T18:51:39.078Z,8.80
2019-05-02T18:54:08.740Z,12.37
2019-05-02T18:56:42.314Z,9.80
2019-05-02T18:59:14.154Z,8.87
2019-05-02T19:01:47.385Z,8.03
2019-05-02T19:04:14.444Z,12.07
2019-05-02T19:06:44.174Z,14.73
2019-05-02T19:09:17.534Z,13.93
2019-05-02T19:11:46.423Z,17.60
2019-05-02T19:14:16.680Z,18.80
2019-05-02T19:16:47.631Z,17.90
2019-05-02T19:19:17.305Z,20.43
2019-05-02T19:21:46.961Z,18.37
2019-05-02T19:24:16.632Z,17.30
2019-05-02T19:26:49.397Z,17.27
2019-05-02T19:29:24.168Z,15.43
2019-05-02T19:31:53.875Z,16.03
2019-05-02T19:34:26.752Z,22.90
2019-05-02T19:36:57.982Z,21.80
2019-05-02T19:39:29.729Z,20.47
2019-05-02T19:42:01.618Z,21.13
2019-05-02T19:44:32.085Z,26.17
2019-05-02T19:47:02.581Z,21.53
2019-05-02T19:49:32.837Z,22.00
2019-05-02T19:52:02.772Z,25.93
2019-05-02T19:54:39.556Z,24.93
2019-05-02T19:57:04.178Z,26.40
2019-05-02T19:59:33.916Z,28.30
2019-05-02T20:02:06.012Z,27.90
2019-05-02T20:04:37.801Z,36.53
2019-05-02T20:07:06.820Z,36.93
2019-05-02T20:09:38.242Z,31.40
2019-05-02T20:12:13.529Z,32.87
2019-05-02T20:14:43.682Z,32.43
2019-05-02T20:17:20.310Z,37.37
2019-05-02T20:19:48.612Z,33.43
2019-05-02T20:22:18.340Z,31.27
2019-05-02T20:24:55.571Z,36.30
2019-05-02T20:27:22.465Z,31.83
2019-05-02T20:29:52.353Z,33.70
2019-05-02T20:32:22.243Z,32.27
2019-05-02T20:34:52.010Z,29.63
2019-05-02T20:37:22.246Z,30.77
2019-05-02T20:39:51.997Z,30.40
2019-05-02T20:42:21.744Z,31.73
2019-05-02T20:44:52.835Z,35.33
2019-05-02T20:47:25.974Z,26.57
2019-05-02T20:49:55.783Z,31.40
2019-05-02T20:52:25.513Z,27.90
2019-05-02T20:54:55.173Z,19.03
2019-05-02T20:57:24.859Z,17.93
2019-05-02T20:59:54.504Z,15.10
2019-05-02T21:02:24.316Z,13.00
2019-05-02T21:04:55.489Z,12.43
2019-05-02T21:07:43.051Z,10.43
2019-05-02T21:10:14.739Z,9.80
2019-05-02T21:12:44.547Z,10.37
2019-05-02T21:15:18.143Z,8.50
2019-05-02T21:17:47.062Z,9.03
2019-05-02T21:20:16.796Z,9.00
2019-05-02T21:22:46.449Z,8.77
2019-05-02T21:25:16.101Z,7.30
2019-05-02T21:27:47.289Z,7.97
2019-05-02T21:30:24.193Z,7.73
2019-05-02T21:32:53.936Z,7.90
2019-05-02T21:35:23.673Z,7.40
2019-05-02T21:37:53.350Z,7.20
2019-05-02T21:40:25.497Z,7.67
2019-05-02T21:42:54.530Z,6.27
2019-05-02T21:45:24.209Z,5.67
2019-05-02T21:47:53.850Z,5.67
2019-05-02T21:50:23.270Z,5.00
2019-05-02T21:53:12.591Z,5.40
2019-05-02T21:55:49.211Z,5.27
2019-05-02T21:58:18.869Z,5.60
2019-05-02T22:00:54.748Z,5.70
2019-05-02T22:03:24.549Z,6.10
2019-05-02T22:05:54.199Z,6.60
2019-05-02T22:08:23.865Z,6.60
2019-05-02T22:10:53.599Z,6.57
2019-05-02T22:13:23.270Z,6.87
2019-05-02T22:15:54.534Z,6.70
2019-05-02T22:18:25.728Z,7.07
2019-05-02T22:20:55.394Z,6.20
2019-05-02T22:23:25.051Z,6.60
2019-05-02T22:25:54.709Z,6.30
2019-05-02T22:28:24.718Z,8.25
2019-05-02T22:30:54.580Z,7.20
2019-05-02T22:33:24.414Z,7.40
2019-05-02T22:35:54.063Z,7.57
2019-05-02T22:38:23.497Z,7.23
2019-05-02T22:40:54.776Z,6.97
2019-05-02T22:43:24.443Z,6.33
2019-05-02T22:45:54.105Z,6.60
2019-05-02T22:48:23.762Z,6.87
2019-05-02T22:50:54.555Z,6.90
2019-05-02T22:53:24.216Z,10.40
2019-05-02T22:55:53.973Z,6.27
2019-05-02T22:58:23.626Z,7.10
2019-05-02T23:00:53.289Z,7.00
2019-05-02T23:03:24.140Z,8.00
2019-05-02T23:05:53.884Z,9.57
2019-05-02T23:08:23.570Z,8.20
2019-05-02T23:10:53.224Z,9.53
2019-05-02T23:13:24.678Z,7.80
2019-05-02T23:15:54.277Z,7.77
2019-05-02T23:18:23.931Z,7.60
2019-05-02T23:20:53.606Z,7.70
2019-05-02T23:23:24.217Z,7.00
2019-05-02T23:25:55.737Z,8.33
2019-05-02T23:28:32.845Z,7.90
2019-05-02T23:31:02.696Z,7.20
2019-05-02T23:33:51.610Z,7.90
2019-05-02T23:36:21.407Z,7.80
2019-05-02T23:38:52.198Z,7.00
2019-05-02T23:41:22.150Z,7.17
2019-05-02T23:43:52.430Z,7.00
2019-05-02T23:46:22.798Z,6.87
2019-05-02T23:48:53.417Z,7.23
2019-05-02T23:51:24.339Z,7.60
2019-05-02T23:53:54.056Z,8.00
2019-05-02T23:56:23.706Z,7.17
2019-05-02T23:58:53.362Z,7.83
